sensor_id;sensor_type;location;lat;lon;timestamp;pressure;altitude;pressure_sealevel;temperature;humidity
75740;BME280;64357;51.344;6.550;2023-02-28T00:01:16;102711.53;;;0.14;75.26
75740;BME280;64357;51.344;6.550;2023-02-28T00:03:42;102712.19;;;0.13;75.72
75740;BME280;64357;51.344;6.550;2023-02-28T00:06:08;102713.25;;;0.19;75.08
75740;BME280;64357;51.344;6.550;2023-02-28T00:08:34;102714.16;;;0.20;74.98
75740;BME280;64357;51.344;6.550;2023-02-28T00:11:03;102709.94;;;0.15;75.25
75740;BME280;64357;51.344;6.550;2023-02-28T00:13:33;102711.13;;;0.17;75.20
75740;BME280;64357;51.344;6.550;2023-02-28T00:16:21;102710.06;;;0.11;75.54
75740;BME280;64357;51.344;6.550;2023-02-28T00:18:49;102713.13;;;0.14;75.19
75740;BME280;64357;51.344;6.550;2023-02-28T00:21:16;102705.94;;;0.21;75.36
75740;BME280;64357;51.344;6.550;2023-02-28T00:23:42;102706.09;;;0.17;75.22
75740;BME280;64357;51.344;6.550;2023-02-28T00:26:07;102705.34;;;0.12;74.97
75740;BME280;64357;51.344;6.550;2023-02-28T00:28:35;102710.50;;;0.08;75.79
75740;BME280;64357;51.344;6.550;2023-02-28T00:31:00;102710.78;;;0.00;76.21
75740;BME280;64357;51.344;6.550;2023-02-28T00:33:27;102716.19;;;-0.03;75.96
75740;BME280;64357;51.344;6.550;2023-02-28T00:36:01;102704.31;;;-0.04;76.03
75740;BME280;64357;51.344;6.550;2023-02-28T00:38:26;102712.50;;;-0.05;76.05
75740;BME280;64357;51.344;6.550;2023-02-28T00:40:52;102705.13;;;-0.18;76.53
75740;BME280;64357;51.344;6.550;2023-02-28T00:43:17;102711.34;;;-0.16;76.75
75740;BME280;64357;51.344;6.550;2023-02-28T00:45:43;102712.25;;;-0.16;76.46
75740;BME280;64357;51.344;6.550;2023-02-28T00:48:11;102709.75;;;-0.25;76.57
75740;BME280;64357;51.344;6.550;2023-02-28T00:50:38;102709.88;;;-0.20;77.22
75740;BME280;64357;51.344;6.550;2023-02-28T00:53:04;102714.41;;;-0.23;76.48
75740;BME280;64357;51.344;6.550;2023-02-28T00:55:29;102712.94;;;-0.27;76.64
75740;BME280;64357;51.344;6.550;2023-02-28T00:57:54;102716.91;;;-0.23;76.65
75740;BME280;64357;51.344;6.550;2023-02-28T01:00:22;102718.22;;;-0.25;77.37
75740;BME280;64357;51.344;6.550;2023-02-28T01:02:47;102716.13;;;-0.28;77.10
75740;BME280;64357;51.344;6.550;2023-02-28T01:05:12;102716.78;;;-0.38;77.85
75740;BME280;64357;51.344;6.550;2023-02-28T01:07:38;102716.78;;;-0.38;77.12
75740;BME280;64357;51.344;6.550;2023-02-28T01:10:04;102714.94;;;-0.39;76.95
75740;BME280;64357;51.344;6.550;2023-02-28T01:12:31;102722.06;;;-0.37;77.96
75740;BME280;64357;51.344;6.550;2023-02-28T01:14:57;102716.91;;;-0.42;77.42
75740;BME280;64357;51.344;6.550;2023-02-28T01:17:22;102729.63;;;-0.46;77.62
75740;BME280;64357;51.344;6.550;2023-02-28T01:19:48;102720.47;;;-0.56;78.31
75740;BME280;64357;51.344;6.550;2023-02-28T01:22:13;102727.72;;;-0.47;78.11
75740;BME280;64357;51.344;6.550;2023-02-28T01:24:38;102720.88;;;-0.39;77.29
75740;BME280;64357;51.344;6.550;2023-02-28T01:27:04;102725.22;;;-0.38;76.88
75740;BME280;64357;51.344;6.550;2023-02-28T01:29:32;102715.59;;;-0.40;77.01
75740;BME280;64357;51.344;6.550;2023-02-28T01:31:59;102731.31;;;-0.32;77.32
75740;BME280;64357;51.344;6.550;2023-02-28T01:34:27;102712.56;;;-0.43;77.43
75740;BME280;64357;51.344;6.550;2023-02-28T01:36:52;102721.00;;;-0.43;77.65
75740;BME280;64357;51.344;6.550;2023-02-28T01:39:20;102727.72;;;-0.47;77.71
75740;BME280;64357;51.344;6.550;2023-02-28T01:41:46;102716.63;;;-0.54;77.82
75740;BME280;64357;51.344;6.550;2023-02-28T01:47:15;102727.22;;;-0.60;78.28
75740;BME280;64357;51.344;6.550;2023-02-28T01:49:43;102711.91;;;-0.62;78.40
75740;BME280;64357;51.344;6.550;2023-02-28T01:52:14;102711.22;;;-0.61;78.27
75740;BME280;64357;51.344;6.550;2023-02-28T01:54:47;102711.09;;;-0.66;78.15
75740;BME280;64357;51.344;6.550;2023-02-28T01:57:18;102704.50;;;-0.66;78.62
75740;BME280;64357;51.344;6.550;2023-02-28T01:59:56;102704.63;;;-0.60;77.92
75740;BME280;64357;51.344;6.550;2023-02-28T02:02:26;102702.13;;;-0.70;78.08
75740;BME280;64357;51.344;6.550;2023-02-28T02:05:04;102704.34;;;-0.71;78.49
75740;BME280;64357;51.344;6.550;2023-02-28T02:07:37;102703.81;;;-0.65;78.49
75740;BME280;64357;51.344;6.550;2023-02-28T02:23:41;102697.91;;;-0.75;79.15
75740;BME280;64357;51.344;6.550;2023-02-28T02:32:18;102685.75;;;-0.87;78.22
75740;BME280;64357;51.344;6.550;2023-02-28T02:40:55;102687.97;;;-0.89;78.93
75740;BME280;64357;51.344;6.550;2023-02-28T02:43:20;102682.31;;;-0.88;78.39
75740;BME280;64357;51.344;6.550;2023-02-28T02:45:53;102681.38;;;-0.88;78.95
75740;BME280;64357;51.344;6.550;2023-02-28T02:48:27;102678.34;;;-0.91;78.89
75740;BME280;64357;51.344;6.550;2023-02-28T02:50:59;102687.47;;;-0.82;78.97
75740;BME280;64357;51.344;6.550;2023-02-28T02:53:32;102689.84;;;-0.88;78.70
75740;BME280;64357;51.344;6.550;2023-02-28T02:56:03;102692.88;;;-0.85;78.93
75740;BME280;64357;51.344;6.550;2023-02-28T02:58:35;102678.47;;;-0.95;79.16
75740;BME280;64357;51.344;6.550;2023-02-28T03:01:10;102696.69;;;-0.96;78.53
75740;BME280;64357;51.344;6.550;2023-02-28T03:03:40;102685.31;;;-0.94;78.54
75740;BME280;64357;51.344;6.550;2023-02-28T03:06:10;102686.50;;;-1.02;79.09
75740;BME280;64357;51.344;6.550;2023-02-28T03:08:38;102686.91;;;-0.95;79.38
75740;BME280;64357;51.344;6.550;2023-02-28T03:11:06;102686.28;;;-0.94;78.57
75740;BME280;64357;51.344;6.550;2023-02-28T03:17:11;102693.00;;;-0.98;79.01
75740;BME280;64357;51.344;6.550;2023-02-28T03:29:55;102685.94;;;-1.24;80.00
75740;BME280;64357;51.344;6.550;2023-02-28T03:32:57;102672.59;;;-1.39;79.58
75740;BME280;64357;51.344;6.550;2023-02-28T03:35:26;102686.03;;;-1.38;80.14
75740;BME280;64357;51.344;6.550;2023-02-28T03:38:08;102689.88;;;-1.40;80.19
75740;BME280;64357;51.344;6.550;2023-02-28T03:40:43;102687.72;;;-1.43;79.81
75740;BME280;64357;51.344;6.550;2023-02-28T03:43:14;102679.56;;;-1.42;80.45
75740;BME280;64357;51.344;6.550;2023-02-28T03:45:47;102686.28;;;-1.46;79.56
75740;BME280;64357;51.344;6.550;2023-02-28T03:50:44;102686.16;;;-1.42;79.58
75740;BME280;64357;51.344;6.550;2023-02-28T03:53:42;102682.06;;;-1.42;80.15
75740;BME280;64357;51.344;6.550;2023-02-28T03:56:19;102682.22;;;-1.36;79.66
75740;BME280;64357;51.344;6.550;2023-02-28T03:59:02;102696.72;;;-1.39;79.94
75740;BME280;64357;51.344;6.550;2023-02-28T04:01:40;102687.72;;;-1.43;79.96
75740;BME280;64357;51.344;6.550;2023-02-28T04:04:08;102694.38;;;-1.33;79.97
75740;BME280;64357;51.344;6.550;2023-02-28T04:06:34;102693.56;;;-1.38;79.87
75740;BME280;64357;51.344;6.550;2023-02-28T04:09:00;102701.34;;;-1.37;79.22
75740;BME280;64357;51.344;6.550;2023-02-28T04:11:40;102694.22;;;-1.39;79.08
75740;BME280;64357;51.344;6.550;2023-02-28T04:14:08;102691.31;;;-1.37;79.33
75740;BME280;64357;51.344;6.550;2023-02-28T04:16:39;102698.31;;;-1.30;79.31
75740;BME280;64357;51.344;6.550;2023-02-28T04:19:06;102702.44;;;-1.21;78.42
75740;BME280;64357;51.344;6.550;2023-02-28T04:21:37;102707.72;;;-1.19;78.16
75740;BME280;64357;51.344;6.550;2023-02-28T04:24:05;102703.78;;;-1.23;78.41
75740;BME280;64357;51.344;6.550;2023-02-28T04:26:34;102698.88;;;-1.27;78.04
75740;BME280;64357;51.344;6.550;2023-02-28T04:29:01;102703.88;;;-1.27;78.59
75740;BME280;64357;51.344;6.550;2023-02-28T04:31:27;102689.31;;;-1.43;78.68
75740;BME280;64357;51.344;6.550;2023-02-28T04:33:52;102693.81;;;-1.37;78.65
75740;BME280;64357;51.344;6.550;2023-02-28T04:36:18;102702.25;;;-1.36;78.96
75740;BME280;64357;51.344;6.550;2023-02-28T04:38:44;102696.84;;;-1.43;79.28
75740;BME280;64357;51.344;6.550;2023-02-28T04:41:10;102693.66;;;-1.42;78.92
75740;BME280;64357;51.344;6.550;2023-02-28T04:43:36;102705.16;;;-1.39;79.41
75740;BME280;64357;51.344;6.550;2023-02-28T04:46:04;102704.91;;;-1.30;78.37
75740;BME280;64357;51.344;6.550;2023-02-28T04:48:33;102695.66;;;-1.36;77.97
75740;BME280;64357;51.344;6.550;2023-02-28T04:51:03;102702.91;;;-1.37;78.92
75740;BME280;64357;51.344;6.550;2023-02-28T04:53:29;102693.31;;;-1.40;78.61
75740;BME280;64357;51.344;6.550;2023-02-28T04:55:55;102704.47;;;-1.47;78.34
75740;BME280;64357;51.344;6.550;2023-02-28T04:58:21;102701.19;;;-1.52;79.30
75740;BME280;64357;51.344;6.550;2023-02-28T05:00:50;102706.56;;;-1.54;79.73
75740;BME280;64357;51.344;6.550;2023-02-28T05:03:18;102710.63;;;-1.55;79.65
75740;BME280;64357;51.344;6.550;2023-02-28T05:05:46;102710.13;;;-1.58;79.75
75740;BME280;64357;51.344;6.550;2023-02-28T05:08:11;102698.66;;;-1.52;79.58
75740;BME280;64357;51.344;6.550;2023-02-28T05:10:36;102701.28;;;-1.56;78.19
75740;BME280;64357;51.344;6.550;2023-02-28T05:13:02;102699.03;;;-1.54;77.97
75740;BME280;64357;51.344;6.550;2023-02-28T05:15:27;102707.88;;;-1.47;78.45
75740;BME280;64357;51.344;6.550;2023-02-28T05:17:53;102710.19;;;-1.39;77.13
75740;BME280;64357;51.344;6.550;2023-02-28T05:20:18;102708.59;;;-1.38;77.06
75740;BME280;64357;51.344;6.550;2023-02-28T05:22:49;102715.47;;;-1.37;77.20
75740;BME280;64357;51.344;6.550;2023-02-28T05:25:19;102713.22;;;-1.36;77.01
75740;BME280;64357;51.344;6.550;2023-02-28T05:27:44;102713.72;;;-1.42;77.41
75740;BME280;64357;51.344;6.550;2023-02-28T05:30:11;102711.19;;;-1.52;77.62
75740;BME280;64357;51.344;6.550;2023-02-28T05:32:39;102719.63;;;-1.51;78.21
75740;BME280;64357;51.344;6.550;2023-02-28T05:35:11;102716.22;;;-1.52;78.11
75740;BME280;64357;51.344;6.550;2023-02-28T05:37:37;102718.31;;;-1.49;77.59
75740;BME280;64357;51.344;6.550;2023-02-28T05:40:04;102723.72;;;-1.52;77.17
75740;BME280;64357;51.344;6.550;2023-02-28T05:42:32;102720.50;;;-1.61;77.66
75740;BME280;64357;51.344;6.550;2023-02-28T05:44:57;102729.94;;;-1.50;77.06
75740;BME280;64357;51.344;6.550;2023-02-28T05:47:23;102728.34;;;-1.49;77.39
75740;BME280;64357;51.344;6.550;2023-02-28T05:49:48;102729.38;;;-1.53;76.90
75740;BME280;64357;51.344;6.550;2023-02-28T05:52:14;102726.50;;;-1.50;76.47
75740;BME280;64357;51.344;6.550;2023-02-28T05:54:41;102727.25;;;-1.55;76.42
75740;BME280;64357;51.344;6.550;2023-02-28T05:57:07;102727.41;;;-1.50;75.89
75740;BME280;64357;51.344;6.550;2023-02-28T05:59:32;102728.44;;;-1.53;76.08
75740;BME280;64357;51.344;6.550;2023-02-28T06:01:58;102733.97;;;-1.60;76.39
75740;BME280;64357;51.344;6.550;2023-02-28T06:04:25;102732.84;;;-1.52;76.29
75740;BME280;64357;51.344;6.550;2023-02-28T06:06:56;102729.75;;;-1.55;76.03
75740;BME280;64357;51.344;6.550;2023-02-28T06:09:22;102728.44;;;-1.53;75.53
75740;BME280;64357;51.344;6.550;2023-02-28T06:11:48;102732.69;;;-1.48;75.78
75740;BME280;64357;51.344;6.550;2023-02-28T06:14:23;102741.84;;;-1.39;74.46
75740;BME280;64357;51.344;6.550;2023-02-28T06:16:49;102736.41;;;-1.46;75.09
75740;BME280;64357;51.344;6.550;2023-02-28T06:19:14;102745.00;;;-1.40;74.07
75740;BME280;64357;51.344;6.550;2023-02-28T06:21:43;102756.75;;;-1.35;74.65
75740;BME280;64357;51.344;6.550;2023-02-28T06:24:09;102753.06;;;-1.37;74.40
75740;BME280;64357;51.344;6.550;2023-02-28T06:26:34;102750.81;;;-1.36;74.58
75740;BME280;64357;51.344;6.550;2023-02-28T06:29:02;102757.97;;;-1.33;74.49
75740;BME280;64357;51.344;6.550;2023-02-28T06:31:28;102756.91;;;-1.29;73.78
75740;BME280;64357;51.344;6.550;2023-02-28T06:33:54;102760.38;;;-1.29;73.35
75740;BME280;64357;51.344;6.550;2023-02-28T06:36:22;102757.19;;;-1.28;73.19
75740;BME280;64357;51.344;6.550;2023-02-28T06:38:48;102748.75;;;-1.28;73.20
75740;BME280;64357;51.344;6.550;2023-02-28T06:41:19;102765.22;;;-1.25;72.95
75740;BME280;64357;51.344;6.550;2023-02-28T06:43:44;102765.94;;;-1.16;73.45
75740;BME280;64357;51.344;6.550;2023-02-28T06:46:12;102766.59;;;-1.17;72.46
75740;BME280;64357;51.344;6.550;2023-02-28T06:48:39;102765.94;;;-1.16;72.78
75740;BME280;64357;51.344;6.550;2023-02-28T06:51:10;102766.66;;;-1.31;73.96
75740;BME280;64357;51.344;6.550;2023-02-28T06:53:36;102776.44;;;-1.32;73.39
75740;BME280;64357;51.344;6.550;2023-02-28T06:56:12;102770.22;;;-1.35;73.89
75740;BME280;64357;51.344;6.550;2023-02-28T06:58:40;102771.19;;;-1.24;73.30
75740;BME280;64357;51.344;6.550;2023-02-28T07:01:10;102774.50;;;-1.20;72.96
75740;BME280;64357;51.344;6.550;2023-02-28T07:03:36;102777.25;;;-1.18;72.63
75740;BME280;64357;51.344;6.550;2023-02-28T07:06:02;102774.13;;;-1.17;72.45
75740;BME280;64357;51.344;6.550;2023-02-28T07:08:29;102782.31;;;-1.09;72.87
75740;BME280;64357;51.344;6.550;2023-02-28T07:10:55;102775.63;;;-1.04;72.25
75740;BME280;64357;51.344;6.550;2023-02-28T07:13:21;102775.47;;;-1.00;72.54
75740;BME280;64357;51.344;6.550;2023-02-28T07:16:02;102777.09;;;-0.91;71.90
75740;BME280;64357;51.344;6.550;2023-02-28T07:18:28;102778.94;;;-0.90;72.41
75740;BME280;64357;51.344;6.550;2023-02-28T07:20:54;102775.66;;;-0.85;71.42
75740;BME280;64357;51.344;6.550;2023-02-28T07:23:23;102780.03;;;-0.74;71.31
75740;BME280;64357;51.344;6.550;2023-02-28T07:25:50;102780.03;;;-0.74;70.63
75740;BME280;64357;51.344;6.550;2023-02-28T07:28:15;102777.41;;;-0.70;71.04
75740;BME280;64357;51.344;6.550;2023-02-28T07:30:43;102786.78;;;-0.59;70.61
75740;BME280;64357;51.344;6.550;2023-02-28T07:33:09;102789.19;;;-0.55;69.66
75740;BME280;64357;51.344;6.550;2023-02-28T07:35:35;102779.94;;;-0.50;70.35
75740;BME280;64357;51.344;6.550;2023-02-28T07:38:03;102795.66;;;-0.42;69.76
75740;BME280;64357;51.344;6.550;2023-02-28T07:40:28;102784.56;;;-0.38;69.34
75740;BME280;64357;51.344;6.550;2023-02-28T07:42:54;102782.31;;;-0.37;68.14
75740;BME280;64357;51.344;6.550;2023-02-28T07:45:20;102787.22;;;-0.23;67.63
75740;BME280;64357;51.344;6.550;2023-02-28T07:47:49;102786.31;;;-0.23;67.86
75740;BME280;64357;51.344;6.550;2023-02-28T07:50:15;102783.22;;;-0.07;68.08
75740;BME280;64357;51.344;6.550;2023-02-28T07:52:41;102780.47;;;-0.09;67.01
75740;BME280;64357;51.344;6.550;2023-02-28T07:55:08;102798.00;;;0.11;66.65
75740;BME280;64357;51.344;6.550;2023-02-28T07:57:34;102795.00;;;0.08;67.29
75740;BME280;64357;51.344;6.550;2023-02-28T08:00:02;102792.31;;;0.12;67.82
75740;BME280;64357;51.344;6.550;2023-02-28T08:02:28;102803.47;;;0.18;67.13
75740;BME280;64357;51.344;6.550;2023-02-28T08:04:53;102799.19;;;0.22;66.56
75740;BME280;64357;51.344;6.550;2023-02-28T08:07:18;102808.31;;;0.32;66.21
75740;BME280;64357;51.344;6.550;2023-02-28T08:09:44;102799.06;;;0.26;65.74
75740;BME280;64357;51.344;6.550;2023-02-28T08:12:12;102811.31;;;0.44;65.80
75740;BME280;64357;51.344;6.550;2023-02-28T08:14:37;102796.88;;;0.53;64.30
75740;BME280;64357;51.344;6.550;2023-02-28T08:17:03;102803.56;;;0.68;62.66
75740;BME280;64357;51.344;6.550;2023-02-28T08:19:29;102793.31;;;0.82;61.27
75740;BME280;64357;51.344;6.550;2023-02-28T08:21:55;102805.00;;;1.06;57.92
75740;BME280;64357;51.344;6.550;2023-02-28T08:24:21;102800.81;;;1.16;56.81
75740;BME280;64357;51.344;6.550;2023-02-28T08:26:49;102799.44;;;1.28;56.45
75740;BME280;64357;51.344;6.550;2023-02-28T08:29:16;102803.50;;;1.37;55.02
75740;BME280;64357;51.344;6.550;2023-02-28T08:31:44;102799.72;;;1.45;54.56
75740;BME280;64357;51.344;6.550;2023-02-28T08:34:12;102802.25;;;1.45;54.04
75740;BME280;64357;51.344;6.550;2023-02-28T08:36:42;102804.19;;;1.51;52.92
75740;BME280;64357;51.344;6.550;2023-02-28T08:39:10;102804.78;;;1.60;53.34
75740;BME280;64357;51.344;6.550;2023-02-28T08:41:35;102796.56;;;1.61;52.28
75740;BME280;64357;51.344;6.550;2023-02-28T08:44:01;102785.97;;;1.58;52.20
75740;BME280;64357;51.344;6.550;2023-02-28T08:46:27;102792.38;;;1.71;51.34
75740;BME280;64357;51.344;6.550;2023-02-28T08:48:55;102793.63;;;1.79;51.15
75740;BME280;64357;51.344;6.550;2023-02-28T08:51:25;102790.22;;;1.94;51.28
75740;BME280;64357;51.344;6.550;2023-02-28T08:54:01;102796.66;;;1.97;51.16
75740;BME280;64357;51.344;6.550;2023-02-28T08:56:27;102793.28;;;2.02;50.55
75740;BME280;64357;51.344;6.550;2023-02-28T08:58:55;102788.50;;;2.04;49.24
75740;BME280;64357;51.344;6.550;2023-02-28T09:01:26;102793.53;;;2.04;49.69
75740;BME280;64357;51.344;6.550;2023-02-28T09:03:57;102786.28;;;2.11;49.16
75740;BME280;64357;51.344;6.550;2023-02-28T09:06:25;102783.72;;;2.05;48.87
75740;BME280;64357;51.344;6.550;2023-02-28T09:08:51;102786.72;;;2.08;49.40
75740;BME280;64357;51.344;6.550;2023-02-28T09:11:17;102784.06;;;2.12;48.10
75740;BME280;64357;51.344;6.550;2023-02-28T09:13:44;102774.28;;;2.20;48.26
75740;BME280;64357;51.344;6.550;2023-02-28T09:16:12;102778.56;;;2.30;49.01
75740;BME280;64357;51.344;6.550;2023-02-28T09:18:39;102775.59;;;2.33;48.51
75740;BME280;64357;51.344;6.550;2023-02-28T09:21:09;102776.88;;;2.40;47.23
75740;BME280;64357;51.344;6.550;2023-02-28T09:23:35;102780.31;;;2.41;47.93
75740;BME280;64357;51.344;6.550;2023-02-28T09:26:03;102783.38;;;2.50;48.06
75740;BME280;64357;51.344;6.550;2023-02-28T09:28:31;102779.00;;;2.49;44.66
75740;BME280;64357;51.344;6.550;2023-02-28T09:31:00;102779.56;;;2.57;43.87
75740;BME280;64357;51.344;6.550;2023-02-28T09:33:28;102786.66;;;2.54;44.18
75740;BME280;64357;51.344;6.550;2023-02-28T09:35:59;102778.50;;;2.46;44.00
75740;BME280;64357;51.344;6.550;2023-02-28T09:38:25;102775.81;;;2.50;44.26
75740;BME280;64357;51.344;6.550;2023-02-28T09:40:53;102770.66;;;2.59;44.41
75740;BME280;64357;51.344;6.550;2023-02-28T09:43:26;102784.50;;;2.67;44.25
75740;BME280;64357;51.344;6.550;2023-02-28T09:45:59;102766.81;;;2.46;42.89
75740;BME280;64357;51.344;6.550;2023-02-28T09:48:32;102777.25;;;2.53;44.10
75740;BME280;64357;51.344;6.550;2023-02-28T09:51:12;102784.25;;;2.65;44.51
75740;BME280;64357;51.344;6.550;2023-02-28T09:53:41;102778.03;;;2.63;44.99
75740;BME280;64357;51.344;6.550;2023-02-28T09:56:13;102769.19;;;2.71;44.03
75740;BME280;64357;51.344;6.550;2023-02-28T10:01:20;102767.94;;;2.63;45.97
75740;BME280;64357;51.344;6.550;2023-02-28T10:06:38;102759.81;;;2.97;45.42
75740;BME280;64357;51.344;6.550;2023-02-28T10:11:46;102766.34;;;3.06;44.92
75740;BME280;64357;51.344;6.550;2023-02-28T10:14:21;102768.75;;;3.21;44.28
75740;BME280;64357;51.344;6.550;2023-02-28T10:16:55;102773.06;;;3.16;44.25
75740;BME280;64357;51.344;6.550;2023-02-28T10:22:17;102764.84;;;3.17;44.57
75740;BME280;64357;51.344;6.550;2023-02-28T10:24:52;102772.03;;;3.26;44.62
75740;BME280;64357;51.344;6.550;2023-02-28T10:29:46;102770.19;;;3.25;45.32
75740;BME280;64357;51.344;6.550;2023-02-28T10:32:37;102770.00;;;3.29;44.48
75740;BME280;64357;51.344;6.550;2023-02-28T10:35:15;102766.16;;;3.68;43.71
75740;BME280;64357;51.344;6.550;2023-02-28T10:37:42;102756.00;;;3.63;43.88
75740;BME280;64357;51.344;6.550;2023-02-28T10:40:27;102755.84;;;3.72;44.46
75740;BME280;64357;51.344;6.550;2023-02-28T10:43:00;102768.91;;;3.64;43.16
75740;BME280;64357;51.344;6.550;2023-02-28T10:45:30;102757.00;;;3.42;43.53
75740;BME280;64357;51.344;6.550;2023-02-28T11:01:34;102742.59;;;5.05;40.03
75740;BME280;64357;51.344;6.550;2023-02-28T11:04:02;102750.13;;;5.89;38.29
75740;BME280;64357;51.344;6.550;2023-02-28T11:06:33;102736.00;;;6.13;37.31
75740;BME280;64357;51.344;6.550;2023-02-28T11:09:00;102730.06;;;6.94;36.01
75740;BME280;64357;51.344;6.550;2023-02-28T11:11:29;102721.78;;;5.92;36.84
75740;BME280;64357;51.344;6.550;2023-02-28T11:14:04;102716.22;;;5.88;36.91
75740;BME280;64357;51.344;6.550;2023-02-28T11:16:37;102727.34;;;6.47;36.24
75740;BME280;64357;51.344;6.550;2023-02-28T11:19:06;102725.34;;;7.62;34.64
75740;BME280;64357;51.344;6.550;2023-02-28T11:21:51;102718.75;;;7.94;33.93
75740;BME280;64357;51.344;6.550;2023-02-28T11:24:32;102729.16;;;7.47;33.95
75740;BME280;64357;51.344;6.550;2023-02-28T11:26:59;102720.75;;;7.30;35.23
75740;BME280;64357;51.344;6.550;2023-02-28T11:29:25;102718.88;;;7.59;34.85
75740;BME280;64357;51.344;6.550;2023-02-28T11:32:19;102723.69;;;8.05;33.45
75740;BME280;64357;51.344;6.550;2023-02-28T11:35:03;102715.19;;;8.72;31.87
75740;BME280;64357;51.344;6.550;2023-02-28T11:37:40;102708.09;;;8.51;32.41
75740;BME280;64357;51.344;6.550;2023-02-28T11:40:17;102716.09;;;8.73;32.53
75740;BME280;64357;51.344;6.550;2023-02-28T11:42:57;102709.41;;;9.43;31.36
75740;BME280;64357;51.344;6.550;2023-02-28T11:45:39;102707.00;;;8.93;31.19
75740;BME280;64357;51.344;6.550;2023-02-28T11:50:58;102726.03;;;8.04;33.75
75740;BME280;64357;51.344;6.550;2023-02-28T11:53:35;102725.34;;;7.03;34.45
75740;BME280;64357;51.344;6.550;2023-02-28T11:56:21;102720.88;;;8.09;33.56
75740;BME280;64357;51.344;6.550;2023-02-28T11:59:22;102706.16;;;8.01;33.28
75740;BME280;64357;51.344;6.550;2023-02-28T12:04:52;102695.19;;;7.89;32.38
75740;BME280;64357;51.344;6.550;2023-02-28T12:27:13;102675.31;;;7.44;33.42
75740;BME280;64357;51.344;6.550;2023-02-28T12:34:52;102668.88;;;8.20;32.40
75740;BME280;64357;51.344;6.550;2023-02-28T12:37:28;102661.75;;;7.62;33.11
75740;BME280;64357;51.344;6.550;2023-02-28T12:40:00;102647.94;;;7.55;33.38
75740;BME280;64357;51.344;6.550;2023-02-28T12:42:33;102658.84;;;7.72;33.70
75740;BME280;64357;51.344;6.550;2023-02-28T12:45:10;102644.19;;;7.40;33.74
75740;BME280;64357;51.344;6.550;2023-02-28T12:47:38;102658.69;;;7.65;34.00
75740;BME280;64357;51.344;6.550;2023-02-28T12:50:08;102657.03;;;7.47;34.27
75740;BME280;64357;51.344;6.550;2023-02-28T12:55:33;102637.50;;;7.77;34.13
75740;BME280;64357;51.344;6.550;2023-02-28T13:11:33;102624.69;;;8.19;33.35
75740;BME280;64357;51.344;6.550;2023-02-28T13:14:06;102618.22;;;8.40;32.87
75740;BME280;64357;51.344;6.550;2023-02-28T13:19:36;102620.44;;;8.44;32.78
75740;BME280;64357;51.344;6.550;2023-02-28T13:22:02;102602.94;;;8.03;32.71
75740;BME280;64357;51.344;6.550;2023-02-28T13:24:41;102619.50;;;7.94;33.29
75740;BME280;64357;51.344;6.550;2023-02-28T13:29:34;102616.81;;;7.68;34.09
75740;BME280;64357;51.344;6.550;2023-02-28T13:34:49;102618.91;;;7.47;34.27
75740;BME280;64357;51.344;6.550;2023-02-28T13:37:35;102622.53;;;6.83;34.89
75740;BME280;64357;51.344;6.550;2023-02-28T13:42:55;102594.47;;;6.94;34.98
75740;BME280;64357;51.344;6.550;2023-02-28T13:45:24;102600.28;;;7.17;35.29
75740;BME280;64357;51.344;6.550;2023-02-28T13:47:55;102607.50;;;6.55;35.61
75740;BME280;64357;51.344;6.550;2023-02-28T14:06:29;102590.19;;;5.71;39.23
75740;BME280;64357;51.344;6.550;2023-02-28T14:11:46;102586.28;;;5.67;38.27
75740;BME280;64357;51.344;6.550;2023-02-28T14:17:05;102579.47;;;5.38;38.86
75740;BME280;64357;51.344;6.550;2023-02-28T14:19:33;102586.16;;;5.38;39.73
75740;BME280;64357;51.344;6.550;2023-02-28T14:24:59;102582.91;;;5.39;40.34
75740;BME280;64357;51.344;6.550;2023-02-28T14:33:13;102584.25;;;5.53;40.40
75740;BME280;64357;51.344;6.550;2023-02-28T14:39:21;102580.31;;;5.61;40.66
75740;BME280;64357;51.344;6.550;2023-02-28T14:41:47;102576.44;;;5.52;40.39
75740;BME280;64357;51.344;6.550;2023-02-28T14:44:24;102579.00;;;5.41;40.79
75740;BME280;64357;51.344;6.550;2023-02-28T14:46:54;102569.81;;;5.30;41.56
75740;BME280;64357;51.344;6.550;2023-02-28T14:49:29;102567.72;;;5.33;41.26
75740;BME280;64357;51.344;6.550;2023-02-28T14:54:42;102576.94;;;5.32;41.17
75740;BME280;64357;51.344;6.550;2023-02-28T15:00:12;102568.63;;;5.39;42.94
75740;BME280;64357;51.344;6.550;2023-02-28T15:02:41;102567.28;;;5.35;42.85
75740;BME280;64357;51.344;6.550;2023-02-28T15:07:34;102566.06;;;5.50;43.11
75740;BME280;64357;51.344;6.550;2023-02-28T15:10:27;102568.69;;;5.28;43.66
75740;BME280;64357;51.344;6.550;2023-02-28T15:12:53;102567.06;;;5.28;44.02
75740;BME280;64357;51.344;6.550;2023-02-28T15:15:22;102562.00;;;5.34;43.79
75740;BME280;64357;51.344;6.550;2023-02-28T15:17:52;102567.03;;;5.40;43.50
75740;BME280;64357;51.344;6.550;2023-02-28T15:20:19;102566.34;;;5.35;43.88
75740;BME280;64357;51.344;6.550;2023-02-28T15:22:52;102569.59;;;5.40;43.81
75740;BME280;64357;51.344;6.550;2023-02-28T15:25:21;102563.34;;;5.32;43.72
75740;BME280;64357;51.344;6.550;2023-02-28T15:27:53;102554.19;;;5.16;43.99
75740;BME280;64357;51.344;6.550;2023-02-28T15:30:28;102565.47;;;5.23;44.18
75740;BME280;64357;51.344;6.550;2023-02-28T15:33:07;102567.75;;;5.27;44.91
75740;BME280;64357;51.344;6.550;2023-02-28T15:35:42;102562.94;;;5.29;44.63
75740;BME280;64357;51.344;6.550;2023-02-28T15:38:16;102568.72;;;5.22;45.12
75740;BME280;64357;51.344;6.550;2023-02-28T15:40:50;102564.59;;;5.06;45.15
75740;BME280;64357;51.344;6.550;2023-02-28T15:43:36;102557.69;;;5.11;45.33
75740;BME280;64357;51.344;6.550;2023-02-28T15:46:08;102563.66;;;5.17;45.70
75740;BME280;64357;51.344;6.550;2023-02-28T15:48:55;102553.53;;;5.11;45.36
75740;BME280;64357;51.344;6.550;2023-02-28T15:51:36;102559.97;;;5.09;45.24
75740;BME280;64357;51.344;6.550;2023-02-28T15:54:08;102558.13;;;5.02;45.04
75740;BME280;64357;51.344;6.550;2023-02-28T15:56:39;102561.84;;;5.04;45.69
75740;BME280;64357;51.344;6.550;2023-02-28T15:59:16;102558.16;;;4.97;44.29
75740;BME280;64357;51.344;6.550;2023-02-28T16:01:45;102563.69;;;4.94;45.01